Time;durP1;ratioP1;P1;durP2;ratioP2;P2;SDS_P1;SDS_P2;PMS_P1;PMS_P2;Temp;Humidity;BMP_temperature;BMP_pressure;BME280_temperature;BME280_humidity;BME280_pressure;Samples;Min_cycle;Max_cycle;Signal;HPM_P1;HPM_P2
2022/06/22 00:02:16;;;;;;;4.65;1.20;;;13.20;99.90;;;;;;4960926;28;20023;-62
2022/06/22 00:04:43;;;;;;;1.73;1.00;;;13.30;99.90;;;;;;4957689;28;20030;-64
2022/06/22 00:07:26;;;;;;;3.58;1.73;;;13.50;99.90;;;;;;4962548;28;20523;-65
2022/06/22 00:09:54;;;;;;;;;;;13.70;99.90;;;;;;4964031;28;20018;-68
2022/06/22 00:12:29;;;;;;;3.83;1.23;;;13.90;99.90;;;;;;4962299;28;19956;-67
2022/06/22 00:14:59;;;;;;;4.95;2.25;;;14.00;99.90;;;;;;4958153;28;20110;-66
2022/06/22 00:17:39;;;;;;;4.30;1.50;;;14.10;99.90;;;;;;4961193;28;20025;-68
2022/06/22 00:20:06;;;;;;;10.50;2.10;;;14.20;99.90;;;;;;4963972;28;20019;-69
2022/06/22 00:22:53;;;;;;;4.13;1.33;;;14.30;99.90;;;;;;4966009;28;20019;-67
2022/06/22 00:25:23;;;;;;;2.97;0.98;;;14.40;99.80;;;;;;4959231;28;20551;-67
2022/06/22 00:27:50;;;;;;;3.88;2.08;;;14.30;99.90;;;;;;4966176;28;20023;-66
2022/06/22 00:30:23;;;;;;;3.85;1.27;;;14.50;99.90;;;;;;4973647;28;20082;-64
2022/06/22 00:33:21;;;;;;;4.57;2.13;;;14.60;99.70;;;;;;4981104;28;20030;-65
2022/06/22 00:35:55;;;;;;;2.20;1.40;;;14.70;99.90;;;;;;4973819;28;20117;-65
2022/06/22 00:38:31;;;;;;;5.05;0.70;;;15.00;99.30;;;;;;4978973;28;20023;-66
2022/06/22 00:41:15;;;;;;;1.33;0.68;;;15.00;98.50;;;;;;4981039;28;20023;-67
2022/06/22 00:43:41;;;;;;;;;;;15.00;98.50;;;;;;4985354;28;20030;-65
2022/06/22 00:46:21;;;;;;;1.30;0.57;;;15.20;98.10;;;;;;4981626;28;20016;-64
2022/06/22 00:48:51;;;;;;;2.35;0.93;;;15.20;97.90;;;;;;4975510;28;20061;-67
2022/06/22 00:51:26;;;;;;;2.63;0.80;;;15.20;97.50;;;;;;4985058;28;20244;-64
2022/06/22 00:53:58;;;;;;;1.98;0.80;;;15.30;97.80;;;;;;4984934;28;20014;-65
2022/06/22 00:56:25;;;;;;;3.28;1.00;;;15.50;96.90;;;;;;4980881;28;20022;-65
2022/06/22 00:59:29;;;;;;;0.75;0.50;;;15.50;96.80;;;;;;4979258;28;20022;-65
2022/06/22 01:01:59;;;;;;;1.10;0.70;;;15.50;97.50;;;;;;4981790;28;20710;-65
2022/06/22 01:04:40;;;;;;;4.72;1.02;;;15.70;96.90;;;;;;4980697;28;20080;-64
2022/06/22 01:07:19;;;;;;;2.47;0.88;;;15.70;96.90;;;;;;4977241;28;20064;-64
2022/06/22 01:10:05;;;;;;;2.42;1.10;;;15.80;97.10;;;;;;4981562;28;20018;-65
2022/06/22 01:12:38;;;;;;;5.15;0.90;;;15.90;97.20;;;;;;4976392;28;20487;-66
2022/06/22 01:15:13;;;;;;;4.53;1.38;;;16.10;97.30;;;;;;4977674;28;20030;-64
2022/06/22 01:18:00;;;;;;;4.93;1.50;;;16.30;97.00;;;;;;4980001;28;20030;-64
2022/06/22 01:20:55;;;;;;;3.97;1.20;;;16.20;97.20;;;;;;4877545;29;20529;-64
2022/06/22 01:23:43;;;;;;;5.28;1.40;;;16.20;97.00;;;;;;4881498;29;20064;-66
2022/06/22 01:26:34;;;;;;;2.05;0.85;;;16.30;96.90;;;;;;4879235;29;20132;-64
2022/06/22 01:29:06;;;;;;;5.57;1.00;;;16.40;96.60;;;;;;4883228;29;20085;-64
2022/06/22 01:31:35;;;;;;;3.88;1.95;;;16.50;96.80;;;;;;4880311;29;20041;-65
2022/06/22 01:34:03;;;;;;;1.17;0.60;;;16.80;96.40;;;;;;4882360;29;20626;-65
2022/06/22 01:36:34;;;;;;;4.55;1.00;;;17.00;93.90;;;;;;4881845;29;20061;-67
2022/06/22 01:39:03;;;;;;;8.00;1.98;;;16.90;93.30;;;;;;4880204;29;20059;-67
2022/06/22 01:41:54;;;;;;;5.38;1.10;;;16.80;93.50;;;;;;4880205;29;20060;-64
2022/06/22 01:44:46;;;;;;;6.55;0.80;;;16.80;94.00;;;;;;4881733;29;20080;-65
2022/06/22 01:47:20;;;;;;;6.35;1.33;;;17.00;92.80;;;;;;4879638;29;20036;-65
2022/06/22 01:50:16;;;;;;;4.60;0.93;;;17.10;92.60;;;;;;4889229;29;20029;-66
2022/06/22 01:53:10;;;;;;;0.88;0.40;;;17.30;92.50;;;;;;4857756;29;20034;-66
2022/06/22 01:55:58;;;;;;;6.75;1.05;;;17.50;92.40;;;;;;4857132;29;20065;-66
2022/06/22 01:58:44;;;;;;;2.67;1.23;;;17.70;92.00;;;;;;4912866;29;20088;-66
2022/06/22 02:01:55;;;;;;;1.48;0.60;;;18.00;91.90;;;;;;4924467;29;20405;-66
2022/06/22 02:04:57;;;;;;;0.28;0.28;;;18.20;90.40;;;;;;4905512;29;20058;-64
2022/06/22 02:07:45;;;;;;;2.75;0.40;;;18.10;90.70;;;;;;4821751;29;20038;-65
2022/06/22 02:10:50;;;;;;;1.88;0.70;;;18.00;90.30;;;;;;4819967;29;20103;-65
2022/06/22 02:13:32;;;;;;;7.85;0.88;;;18.10;90.30;;;;;;4784014;29;20078;-67
2022/06/22 02:16:13;;;;;;;1.52;1.23;;;18.30;89.60;;;;;;4786561;29;20096;-67
2022/06/22 02:18:50;;;;;;;1.17;0.90;;;18.10;87.90;;;;;;4788541;29;20487;-67
2022/06/22 02:21:27;;;;;;;2.65;0.50;;;18.10;89.80;;;;;;4783140;29;20111;-66
2022/06/22 02:24:04;;;;;;;1.08;0.45;;;18.10;88.00;;;;;;4787923;29;20045;-63
2022/06/22 02:26:39;;;;;;;1.58;0.70;;;18.10;86.70;;;;;;4784383;29;20569;-65
2022/06/22 02:29:06;;;;;;;1.88;0.60;;;18.10;86.50;;;;;;4789973;29;20111;-65
2022/06/22 02:31:34;;;;;;;4.63;0.52;;;18.00;86.00;;;;;;4780564;29;20047;-66
2022/06/22 02:34:02;;;;;;;2.60;0.77;;;18.00;88.30;;;;;;4783920;30;20070;-66
2022/06/22 02:36:32;;;;;;;2.40;0.60;;;18.00;88.40;;;;;;4785326;30;20051;-66
2022/06/22 02:39:03;;;;;;;1.75;0.50;;;18.00;87.90;;;;;;4784107;30;20036;-67
2022/06/22 02:44:34;;;;;;;3.92;0.75;;;18.20;85.90;;;;;;4904640;29;20050;-66
2022/06/22 02:47:25;;;;;;;2.35;0.60;;;18.20;87.20;;;;;;4922376;29;20104;-66
2022/06/22 02:50:12;;;;;;;3.03;1.02;;;18.30;84.20;;;;;;4959014;28;20030;-68
2022/06/22 02:52:52;;;;;;;2.85;0.50;;;18.30;86.10;;;;;;4989793;28;20022;-66
2022/06/22 02:55:27;;;;;;;3.47;0.60;;;18.40;85.40;;;;;;4990703;28;20029;-65
2022/06/22 02:57:54;;;;;;;1.48;0.60;;;18.50;84.10;;;;;;4984699;28;20018;-68
2022/06/22 03:00:32;;;;;;;1.33;0.40;;;18.70;84.40;;;;;;4988330;28;20022;-66
2022/06/22 03:03:10;;;;;;;2.35;0.77;;;19.00;82.90;;;;;;4989267;28;20108;-65
2022/06/22 03:05:39;;;;;;;1.50;0.30;;;19.10;82.60;;;;;;4987178;28;20023;-69
2022/06/22 03:08:09;;;;;;;1.05;0.60;;;19.30;82.50;;;;;;4991718;28;20110;-66
2022/06/22 03:10:50;;;;;;;2.03;0.50;;;19.40;82.60;;;;;;4986863;28;20018;-65
2022/06/22 03:13:25;;;;;;;1.52;0.52;;;19.60;80.00;;;;;;4988171;28;20084;-65
2022/06/22 03:15:53;;;;;;;1.25;0.65;;;19.70;81.00;;;;;;4983581;28;20022;-64
2022/06/22 03:18:26;;;;;;;1.00;0.47;;;19.70;80.50;;;;;;4967078;28;20030;-68
2022/06/22 03:21:01;;;;;;;2.65;0.90;;;19.70;80.10;;;;;;4988380;28;20037;-64
2022/06/22 03:23:34;;;;;;;1.35;0.63;;;20.00;80.90;;;;;;4987151;28;20033;-69
2022/06/22 03:26:33;;;;;;;4.60;0.77;;;20.00;77.80;;;;;;4987190;28;20059;-69
2022/06/22 03:29:23;;;;;;;3.08;0.60;;;19.80;78.50;;;;;;4988471;28;20054;-65
2022/06/22 03:32:22;;;;;;;1.77;0.40;;;19.70;79.60;;;;;;4983664;28;20043;-66
2022/06/22 03:35:02;;;;;;;1.58;0.40;;;19.80;78.10;;;;;;4981910;28;20038;-69
2022/06/22 03:37:37;;;;;;;1.35;0.55;;;19.50;77.90;;;;;;4984437;28;20535;-67
2022/06/22 03:40:33;;;;;;;0.95;0.55;;;19.70;77.50;;;;;;4984401;28;20025;-69
2022/06/22 03:43:33;;;;;;;1.65;0.38;;;19.70;76.70;;;;;;4986515;28;20023;-65
2022/06/22 03:46:09;;;;;;;0.43;0.38;;;19.90;78.10;;;;;;4917816;29;20144;-66
2022/06/22 03:48:41;;;;;;;0.57;0.40;;;19.90;77.20;;;;;;4916674;29;20046;-65
2022/06/22 03:51:17;;;;;;;6.13;0.70;;;19.60;76.30;;;;;;4914847;29;20039;-65
2022/06/22 03:54:10;;;;;;;2.75;0.35;;;19.40;76.40;;;;;;4917610;29;20031;-63
2022/06/22 03:56:42;;;;;;;2.97;0.90;;;19.20;76.00;;;;;;4914334;29;20040;-65
2022/06/22 03:59:09;;;;;;;0.77;0.30;;;19.10;76.20;;;;;;4912395;29;20036;-65
2022/06/22 04:01:38;;;;;;;0.90;0.30;;;19.20;75.40;;;;;;4914978;29;20047;-66
2022/06/22 04:04:05;;;;;;;0.60;0.43;;;19.40;75.20;;;;;;4911813;29;20083;-66
2022/06/22 04:06:46;;;;;;;1.63;0.57;;;19.40;75.30;;;;;;4912575;29;20127;-68
2022/06/22 04:09:21;;;;;;;3.35;0.50;;;19.50;75.90;;;;;;4911886;29;20047;-65
2022/06/22 04:11:57;;;;;;;3.13;0.70;;;19.60;75.30;;;;;;4910324;29;20024;-67
2022/06/22 04:14:36;;;;;;;2.72;0.50;;;19.50;75.30;;;;;;4908968;29;20100;-63
2022/06/22 04:17:10;;;;;;;0.50;0.40;;;19.30;75.40;;;;;;4913278;29;20036;-64
2022/06/22 04:19:46;;;;;;;2.38;0.40;;;19.30;76.20;;;;;;4910244;29;20039;-68
2022/06/22 04:22:20;;;;;;;0.65;0.30;;;19.40;75.80;;;;;;4925455;28;20467;-68
2022/06/22 04:24:53;;;;;;;1.55;0.52;;;19.40;75.80;;;;;;4976871;28;20053;-69
2022/06/22 04:27:32;;;;;;;0.63;0.30;;;19.40;75.80;;;;;;4978294;28;20030;-67
2022/06/22 04:30:11;;;;;;;2.33;0.50;;;19.40;76.30;;;;;;4973717;28;20075;-64
2022/06/22 04:33:06;;;;;;;4.97;0.73;;;19.40;75.60;;;;;;4978051;28;20039;-66
2022/06/22 04:35:47;;;;;;;0.57;0.38;;;19.30;75.50;;;;;;4974802;28;20468;-66
2022/06/22 04:38:21;;;;;;;2.22;0.50;;;19.40;75.50;;;;;;4972210;28;20110;-66
2022/06/22 04:40:53;;;;;;;0.50;0.30;;;19.50;75.70;;;;;;4973188;28;20097;-66
2022/06/22 04:43:21;;;;;;;2.15;0.90;;;19.60;76.80;;;;;;4982469;28;20030;-69
2022/06/22 04:45:49;;;;;;;0.75;0.50;;;19.70;77.90;;;;;;4984521;28;20045;-66
2022/06/22 04:48:16;;;;;;;1.48;0.70;;;19.70;78.90;;;;;;4957180;28;20399;-68
2022/06/22 04:50:47;;;;;;;6.28;0.85;;;19.60;78.00;;;;;;4978260;28;20037;-68
2022/06/22 04:53:33;;;;;;;2.25;0.70;;;19.70;77.90;;;;;;4977235;28;20097;-65
2022/06/22 04:56:09;;;;;;;1.23;0.60;;;19.70;75.60;;;;;;4982483;28;20038;-66
2022/06/22 04:58:55;;;;;;;2.35;0.60;;;19.80;76.10;;;;;;4956543;28;20033;-64
2022/06/22 05:01:27;;;;;;;1.38;0.55;;;20.00;76.00;;;;;;4977902;28;20391;-66
2022/06/22 05:03:58;;;;;;;2.50;0.60;;;20.00;76.10;;;;;;4979681;28;20027;-66
2022/06/22 05:06:33;;;;;;;2.70;0.73;;;20.30;75.10;;;;;;4980476;28;20062;-65
2022/06/22 05:09:06;;;;;;;1.92;0.63;;;20.60;75.90;;;;;;4988305;28;20029;-66
2022/06/22 05:11:48;;;;;;;0.65;0.50;;;20.70;76.20;;;;;;4970957;28;20456;-66
2022/06/22 05:14:27;;;;;;;1.08;0.65;;;20.70;74.70;;;;;;4972135;28;20403;-67
2022/06/22 05:17:19;;;;;;;2.70;0.60;;;20.80;74.60;;;;;;4976132;28;20459;-65
2022/06/22 05:19:54;;;;;;;2.88;1.00;;;20.80;72.80;;;;;;4972004;28;20042;-67
2022/06/22 05:22:21;;;;;;;0.73;0.50;;;20.90;72.90;;;;;;4971462;28;20618;-66
2022/06/22 05:25:02;;;;;;;1.05;0.40;;;21.00;71.70;;;;;;4975225;28;20136;-64
2022/06/22 05:27:39;;;;;;;0.65;0.50;;;21.10;71.70;;;;;;4985434;28;20105;-65
2022/06/22 05:30:07;;;;;;;0.82;0.52;;;21.20;73.40;;;;;;4979058;23;20051;-66
2022/06/22 05:32:42;;;;;;;1.27;0.57;;;21.30;72.50;;;;;;4961826;28;20476;-65
2022/06/22 05:35:21;;;;;;;1.95;0.52;;;21.10;72.20;;;;;;4952461;28;20030;-64
2022/06/22 05:37:52;;;;;;;2.88;0.68;;;21.00;72.30;;;;;;4953319;28;20027;-66
2022/06/22 05:40:22;;;;;;;0.73;0.45;;;21.20;72.30;;;;;;4961740;28;20031;-64
2022/06/22 05:42:49;;;;;;;3.75;0.80;;;21.50;71.20;;;;;;4957982;28;20031;-66
2022/06/22 05:45:24;;;;;;;1.48;0.70;;;21.50;71.20;;;;;;4955042;28;20018;-65
2022/06/22 05:47:53;;;;;;;3.88;0.65;;;21.20;72.10;;;;;;4969421;28;20029;-67
2022/06/22 05:50:44;;;;;;;1.73;0.70;;;20.60;73.20;;;;;;4958675;28;20030;-67
2022/06/22 05:53:39;;;;;;;2.20;0.80;;;20.00;72.20;;;;;;4955393;28;20019;-66
2022/06/22 05:56:31;;;;;;;3.30;1.45;;;19.30;73.60;;;;;;4954949;28;20034;-66
2022/06/22 05:59:12;;;;;;;2.40;1.05;;;18.60;75.50;;;;;;4963330;28;20106;-68
2022/06/22 06:02:22;;;;;;;6.90;0.88;;;18.00;79.10;;;;;;4939659;28;20267;-66
2022/06/22 06:05:05;;;;;;;0.85;0.73;;;17.60;81.00;;;;;;4938538;29;20054;-66
2022/06/22 06:08:09;;;;;;;1.17;0.50;;;17.40;81.90;;;;;;4929168;29;20098;-66
2022/06/22 06:10:40;;;;;;;2.55;0.98;;;17.20;82.50;;;;;;4841418;29;20021;-65
2022/06/22 06:13:19;;;;;;;1.13;0.98;;;17.20;82.30;;;;;;4849325;29;20057;-64
2022/06/22 06:15:50;;;;;;;1.55;0.90;;;17.30;84.60;;;;;;4848529;29;20380;-68
2022/06/22 06:18:23;;;;;;;1.70;0.97;;;17.10;84.10;;;;;;4851365;29;20045;-65
2022/06/22 06:20:56;;;;;;;1.25;0.73;;;16.90;84.40;;;;;;4849453;29;20036;-65
2022/06/22 06:23:53;;;;;;;4.80;1.15;;;16.90;85.50;;;;;;4849797;29;20041;-66
2022/06/22 06:29:50;;;;;;;2.83;0.95;;;16.30;89.50;;;;;;4846250;29;20169;-68
2022/06/22 06:32:35;;;;;;;3.13;1.00;;;16.10;90.70;;;;;;4845970;29;20515;-64
2022/06/22 06:35:25;;;;;;;3.90;1.95;;;15.90;91.30;;;;;;4846013;29;20034;-64
2022/06/22 06:38:15;;;;;;;3.30;1.55;;;15.70;92.10;;;;;;4845793;29;20435;-66
2022/06/22 06:41:02;;;;;;;4.05;1.98;;;15.40;92.80;;;;;;4847509;29;20038;-66
2022/06/22 06:43:52;;;;;;;4.45;2.28;;;15.10;93.50;;;;;;4850432;29;20033;-65
2022/06/22 06:46:31;;;;;;;4.88;2.50;;;14.90;93.90;;;;;;4923064;29;20046;-67
2022/06/22 06:49:39;;;;;;;5.78;2.05;;;14.70;94.30;;;;;;4922442;29;20046;-68
2022/06/22 06:52:18;;;;;;;2.38;1.50;;;14.50;94.80;;;;;;4924135;29;20024;-67
2022/06/22 06:54:48;;;;;;;4.25;2.00;;;14.30;95.00;;;;;;4927352;29;20496;-64
2022/06/22 06:57:20;;;;;;;3.45;1.60;;;14.20;95.50;;;;;;4923229;29;20027;-66
2022/06/22 06:59:52;;;;;;;3.53;2.40;;;14.20;95.90;;;;;;4924807;29;20032;-66
2022/06/22 07:02:41;;;;;;;3.25;1.85;;;14.10;96.10;;;;;;4922671;29;20072;-64
2022/06/22 07:05:15;;;;;;;1.50;1.10;;;14.00;96.60;;;;;;4925124;29;20502;-67
2022/06/22 07:07:42;;;;;;;3.30;1.48;;;13.90;97.20;;;;;;4925535;29;20036;-66
2022/06/22 07:10:18;;;;;;;2.17;1.13;;;13.80;97.30;;;;;;4924293;29;20020;-65
2022/06/22 07:12:55;;;;;;;5.45;1.70;;;13.60;97.80;;;;;;4923507;29;20500;-64
2022/06/22 07:15:26;;;;;;;2.88;1.38;;;13.40;98.50;;;;;;4923748;29;20032;-68
2022/06/22 07:17:56;;;;;;;6.97;3.40;;;13.30;99.10;;;;;;4924621;29;20551;-68
2022/06/22 07:20:30;;;;;;;24.75;14.63;;;13.20;99.80;;;;;;4927305;29;20103;-65
2022/06/22 07:23:11;;;;;;;30.42;17.55;;;13.00;99.90;;;;;;4921970;29;20150;-67
2022/06/22 07:25:47;;;;;;;7.63;3.88;;;12.90;99.90;;;;;;4924422;29;20399;-67
2022/06/22 07:28:17;;;;;;;3.03;1.88;;;12.80;99.90;;;;;;4925549;29;20020;-66
2022/06/22 07:30:59;;;;;;;4.60;2.38;;;12.80;99.90;;;;;;4935013;29;20134;-67
2022/06/22 07:33:39;;;;;;;4.50;2.07;;;12.70;99.90;;;;;;4944402;29;20054;-67
2022/06/22 07:36:36;;;;;;;3.25;1.73;;;12.50;99.90;;;;;;4943829;29;20844;-64
2022/06/22 07:39:03;;;;;;;4.47;3.03;;;12.40;99.90;;;;;;4942197;29;20134;-66
2022/06/22 07:41:32;;;;;;;3.90;2.30;;;12.30;99.90;;;;;;4942759;29;20031;-66
2022/06/22 07:44:00;;;;;;;4.45;1.90;;;12.20;99.90;;;;;;4943956;29;20023;-64
2022/06/22 07:46:30;;;;;;;3.67;2.25;;;12.20;99.90;;;;;;4943123;29;20065;-64
2022/06/22 07:49:10;;;;;;;5.15;2.40;;;12.20;99.90;;;;;;4943496;29;20027;-63
2022/06/22 07:51:41;;;;;;;7.93;3.75;;;12.10;99.90;;;;;;4943752;29;20441;-64
2022/06/22 07:54:21;;;;;;;5.20;2.35;;;12.00;99.90;;;;;;4942231;29;20024;-64
2022/06/22 07:56:52;;;;;;;4.25;2.55;;;11.90;99.90;;;;;;4943038;29;20028;-64
2022/06/22 07:59:38;;;;;;;4.22;2.70;;;11.80;99.90;;;;;;4943036;29;20487;-64
2022/06/22 08:02:21;;;;;;;5.18;2.70;;;11.70;99.90;;;;;;4943750;29;20539;-65
2022/06/22 08:05:08;;;;;;;;;;;11.70;99.90;;;;;;4943705;29;20963;-66
2022/06/22 08:07:50;;;;;;;4.60;2.80;;;11.90;99.90;;;;;;4942534;29;19922;-65
2022/06/22 08:10:36;;;;;;;7.82;3.25;;;11.80;99.90;;;;;;4941700;29;20031;-67
2022/06/22 08:13:18;;;;;;;5.90;3.10;;;11.80;99.90;;;;;;4942505;29;20082;-73
2022/06/22 08:15:58;;;;;;;4.20;2.85;;;11.60;99.90;;;;;;4942465;29;20027;-62
2022/06/22 08:18:27;;;;;;;6.00;3.45;;;11.70;99.90;;;;;;4943672;29;20480;-69
2022/06/22 08:20:55;;;;;;;5.03;2.97;;;11.80;99.90;;;;;;4942858;29;20023;-66
2022/06/22 08:23:25;;;;;;;4.93;3.10;;;11.80;99.90;;;;;;4944516;29;20039;-64
2022/06/22 08:25:54;;;;;;;6.32;3.72;;;11.80;99.90;;;;;;4944741;29;20507;-66
2022/06/22 08:28:24;;;;;;;9.63;4.72;;;11.70;99.90;;;;;;4943058;29;20473;-64
2022/06/22 08:30:55;;;;;;;8.75;4.90;;;11.60;99.90;;;;;;4939933;28;20070;-69
2022/06/22 08:33:30;;;;;;;5.55;3.70;;;11.50;99.90;;;;;;4942670;29;20513;-66
2022/06/22 08:36:10;;;;;;;8.43;4.15;;;11.40;99.90;;;;;;4939662;29;20035;-68
2022/06/22 08:38:58;;;;;;;8.48;4.47;;;11.30;99.90;;;;;;4941601;29;20041;-67
2022/06/22 08:41:34;;;;;;;5.93;3.63;;;11.30;99.90;;;;;;4939455;29;20102;-68
2022/06/22 08:44:26;;;;;;;7.55;3.47;;;11.30;99.90;;;;;;4939286;29;20487;-67
2022/06/22 08:47:23;;;;;;;7.60;4.00;;;11.40;99.90;;;;;;4939697;29;20035;-68
2022/06/22 08:50:14;;;;;;;6.07;4.13;;;11.40;99.90;;;;;;4941399;29;20031;-64
2022/06/22 08:53:05;;;;;;;8.00;3.88;;;11.30;99.90;;;;;;4940157;29;20027;-64
2022/06/22 08:55:41;;;;;;;6.93;3.85;;;11.10;99.90;;;;;;4939510;29;20232;-63
2022/06/22 08:58:38;;;;;;;7.95;4.25;;;11.00;99.90;;;;;;4940848;29;20027;-68
2022/06/22 09:01:18;;;;;;;7.15;4.07;;;10.80;99.90;;;;;;4940075;29;20019;-67
2022/06/22 09:04:07;;;;;;;9.10;4.47;;;11.10;99.90;;;;;;4939260;29;20023;-69
2022/06/22 09:07:08;;;;;;;10.27;4.20;;;10.90;99.90;;;;;;4939530;29;20035;-71
2022/06/22 09:10:03;;;;;;;8.68;4.10;;;10.90;99.90;;;;;;4938817;29;20019;-69
2022/06/22 09:12:58;;;;;;;7.30;3.88;;;10.80;99.90;;;;;;4939342;29;20023;-69
2022/06/22 09:15:38;;;;;;;7.43;3.78;;;10.80;99.90;;;;;;4939591;29;20031;-73
2022/06/22 09:18:32;;;;;;;7.60;4.13;;;10.80;99.90;;;;;;4939135;29;20066;-68
2022/06/22 09:21:27;;;;;;;6.65;3.63;;;10.70;99.90;;;;;;4937625;29;20030;-66
2022/06/22 09:24:10;;;;;;;7.57;3.47;;;10.50;99.90;;;;;;4936340;29;20170;-68
2022/06/22 09:26:53;;;;;;;10.68;3.50;;;10.50;99.90;;;;;;4936938;29;20066;-66
2022/06/22 09:29:32;;;;;;;;;;;10.40;99.90;;;;;;4934764;29;20027;-68
2022/06/22 09:32:41;;;;;;;5.68;3.05;;;10.40;99.90;;;;;;4939245;29;19929;-67
2022/06/22 09:35:24;;;;;;;6.47;3.40;;;10.30;99.90;;;;;;4937290;29;20114;-69
2022/06/22 09:38:09;;;;;;;8.88;3.78;;;10.30;99.90;;;;;;4936604;29;20042;-66
2022/06/22 09:41:17;;;;;;;5.85;3.35;;;10.30;99.90;;;;;;4936939;28;20259;-66
2022/06/22 09:44:02;;;;;;;5.85;3.13;;;10.30;99.90;;;;;;4939763;29;20070;-66
2022/06/22 09:46:41;;;;;;;7.63;3.28;;;10.30;99.90;;;;;;4939343;29;20027;-66
2022/06/22 09:49:57;;;;;;;4.32;2.55;;;10.30;99.90;;;;;;4939433;29;20530;-69
2022/06/22 09:52:26;;;;;;;3.88;2.80;;;10.20;99.90;;;;;;4825047;29;20424;-66
2022/06/22 09:58:19;;;;;;;6.43;2.92;;;10.10;99.90;;;;;;4822692;29;20196;-67
2022/06/22 10:01:06;;;;;;;5.60;2.92;;;10.00;99.90;;;;;;4825918;29;20069;-67
2022/06/22 10:03:57;;;;;;;5.28;2.35;;;10.00;99.90;;;;;;4823277;29;20042;-64
2022/06/22 10:07:03;;;;;;;5.30;3.10;;;9.90;99.90;;;;;;4824207;29;20049;-63
2022/06/22 10:09:48;;;;;;;6.68;4.28;;;9.80;99.90;;;;;;4823988;29;20397;-64
2022/06/22 10:12:39;;;;;;;5.00;2.40;;;9.70;99.90;;;;;;4823444;29;20127;-63
2022/06/22 10:15:06;;;;;;;9.82;4.97;;;9.70;99.90;;;;;;4824414;29;20049;-63
2022/06/22 10:18:14;;;;;;;4.43;3.60;;;9.80;99.90;;;;;;4823412;29;20584;-63
2022/06/22 10:20:56;;;;;;;7.63;3.63;;;9.80;99.90;;;;;;4821803;29;20512;-64
2022/06/22 10:23:57;;;;;;;4.05;2.65;;;9.60;99.90;;;;;;4824907;29;20546;-64
2022/06/22 10:26:44;;;;;;;5.50;2.72;;;9.50;99.90;;;;;;4825279;29;20034;-64
2022/06/22 10:29:16;;;;;;;3.00;2.20;;;9.60;99.90;;;;;;4869055;29;20043;-63
2022/06/22 10:32:02;;;;;;;6.00;2.88;;;9.40;99.90;;;;;;4918438;29;20031;-68
2022/06/22 10:35:06;;;;;;;6.57;2.40;;;9.40;99.90;;;;;;4916495;29;20321;-69
2022/06/22 10:37:41;;;;;;;;;;;9.30;99.90;;;;;;4920307;29;20083;-66
2022/06/22 10:46:43;;;;;;;3.50;2.38;;;9.70;99.90;;;;;;4919869;29;20046;-71
2022/06/22 10:49:31;;;;;;;6.85;2.88;;;9.50;99.90;;;;;;4917812;29;20036;-68
2022/06/22 10:52:25;;;;;;;10.25;5.75;;;9.70;99.90;;;;;;4919703;29;20036;-65
2022/06/22 10:55:13;;;;;;;5.53;3.10;;;9.50;99.90;;;;;;4921493;29;20114;-67
2022/06/22 10:57:46;;;;;;;5.65;3.00;;;9.40;99.90;;;;;;4927928;29;20433;-67
2022/06/22 11:00:34;;;;;;;4.03;2.25;;;9.40;99.90;;;;;;4923638;29;20131;-69
2022/06/22 11:03:20;;;;;;;6.28;2.50;;;9.40;99.90;;;;;;4920377;29;20144;-65
2022/06/22 11:06:09;;;;;;;5.40;2.33;;;9.40;99.90;;;;;;4921706;29;20083;-65
2022/06/22 11:08:54;;;;;;;3.90;2.03;;;9.40;99.90;;;;;;4920457;29;20119;-66
2022/06/22 11:11:24;;;;;;;7.03;2.05;;;9.30;99.90;;;;;;4924552;29;20972;-68
2022/06/22 11:14:22;;;;;;;4.18;2.08;;;9.20;99.90;;;;;;4925575;29;20031;-65
2022/06/22 11:16:55;;;;;;;3.88;2.20;;;9.10;99.90;;;;;;4909296;29;20043;-67
2022/06/22 11:19:53;;;;;;;4.78;1.77;;;9.10;99.90;;;;;;4927488;29;20050;-67
2022/06/22 11:22:29;;;;;;;3.45;1.95;;;9.10;99.90;;;;;;4929978;29;20020;-67
2022/06/22 11:32:02;;;;;;;4.60;1.98;;;9.10;99.90;;;;;;4943768;29;20102;-68
2022/06/22 11:34:59;;;;;;;3.13;1.70;;;9.00;99.90;;;;;;4944367;29;20032;-69
2022/06/22 11:37:51;;;;;;;3.90;1.70;;;9.00;99.90;;;;;;4944191;29;20097;-68
2022/06/22 11:40:24;;;;;;;3.90;2.03;;;9.00;99.90;;;;;;4942736;29;20082;-68
2022/06/22 11:43:20;;;;;;;2.88;2.00;;;8.90;99.90;;;;;;4945593;29;20114;-65
2022/06/22 11:46:05;;;;;;;3.88;1.65;;;9.00;99.90;;;;;;4945331;28;20034;-66
2022/06/22 11:48:45;;;;;;;3.67;1.83;;;9.00;99.90;;;;;;4946613;29;20027;-64
2022/06/22 11:51:18;;;;;;;4.53;2.65;;;9.10;99.90;;;;;;4942208;28;20093;-67
2022/06/22 11:54:05;;;;;;;3.10;1.95;;;9.10;99.90;;;;;;4940675;29;20026;-65
2022/06/22 11:56:53;;;;;;;2.97;1.85;;;9.00;99.90;;;;;;4941120;28;20038;-64
2022/06/22 11:59:46;;;;;;;3.75;2.28;;;9.10;99.90;;;;;;4932961;29;20036;-66
2022/06/22 12:02:31;;;;;;;2.47;1.60;;;9.20;99.90;;;;;;4937840;29;20527;-67
2022/06/22 12:05:20;;;;;;;2.90;1.67;;;9.30;99.90;;;;;;4943599;28;20039;-67
2022/06/22 12:08:11;;;;;;;2.63;1.75;;;9.30;99.90;;;;;;4935560;29;20024;-65
2022/06/22 12:10:47;;;;;;;2.58;1.75;;;9.20;99.90;;;;;;4934447;29;20035;-65
2022/06/22 12:16:55;;;;;;;2.33;1.48;;;9.00;99.90;;;;;;4936747;28;20034;-63
2022/06/22 12:19:43;;;;;;;2.50;1.50;;;8.90;99.90;;;;;;4940647;29;20035;-64
2022/06/22 12:22:35;;;;;;;3.40;2.00;;;8.70;99.90;;;;;;4939324;28;20166;-67
2022/06/22 12:25:15;;;;;;;3.55;2.05;;;8.70;99.90;;;;;;4939450;29;20114;-65
2022/06/22 12:28:10;;;;;;;3.30;1.88;;;8.60;99.90;;;;;;4934524;29;20020;-68
2022/06/22 12:30:47;;;;;;;2.53;1.45;;;8.40;99.90;;;;;;4950048;28;20559;-66
2022/06/22 12:33:36;;;;;;;5.78;1.70;;;8.50;99.90;;;;;;4945541;28;20487;-63
2022/06/22 12:36:17;;;;;;;3.65;1.73;;;8.40;99.90;;;;;;4952080;28;20027;-63
2022/06/22 12:38:51;;;;;;;2.90;1.90;;;8.20;99.90;;;;;;4943766;28;20372;-64
2022/06/22 12:42:03;;;;;;;4.03;1.60;;;8.10;99.90;;;;;;4939682;28;20035;-63
2022/06/22 12:44:50;;;;;;;4.75;2.03;;;8.10;99.90;;;;;;4858817;29;20065;-63
2022/06/22 12:47:43;;;;;;;5.25;3.20;;;8.10;99.90;;;;;;4871316;29;20037;-66
2022/06/22 12:50:30;;;;;;;3.42;2.03;;;8.00;99.90;;;;;;4856132;29;20037;-66
2022/06/22 12:53:06;;;;;;;2.67;1.65;;;8.00;99.90;;;;;;4879796;29;20529;-63
2022/06/22 12:55:42;;;;;;;2.60;1.63;;;8.10;99.90;;;;;;4874913;29;20037;-65
2022/06/22 12:58:22;;;;;;;3.13;1.73;;;8.00;99.90;;;;;;4854776;29;20462;-63
2022/06/22 13:00:49;;;;;;;3.58;2.00;;;7.80;99.90;;;;;;4876027;29;20068;-65
2022/06/22 13:03:24;;;;;;;5.65;1.85;;;7.80;99.90;;;;;;4857776;29;20033;-66
2022/06/22 13:05:52;;;;;;;3.08;1.67;;;7.70;99.90;;;;;;4861928;29;20038;-66
2022/06/22 13:08:29;;;;;;;6.00;1.70;;;7.60;99.90;;;;;;4864309;29;20071;-65
2022/06/22 13:11:03;;;;;;;3.13;1.80;;;7.50;99.90;;;;;;4859997;29;20107;-65
2022/06/22 13:13:49;;;;;;;4.65;1.73;;;7.60;99.90;;;;;;4857156;29;20025;-63
2022/06/22 13:16:20;;;;;;;2.67;1.92;;;7.60;99.90;;;;;;4934744;28;20035;-65
2022/06/22 13:19:02;;;;;;;3.88;2.05;;;7.60;99.90;;;;;;4934882;29;20140;-63
2022/06/22 13:21:54;;;;;;;7.15;2.03;;;7.70;99.90;;;;;;4931435;29;20469;-63
2022/06/22 13:24:24;;;;;;;3.10;1.30;;;7.70;99.90;;;;;;4854556;29;20200;-64
2022/06/22 13:27:32;;;;;;;5.15;2.08;;;7.80;99.90;;;;;;4845137;29;20296;-67
2022/06/22 13:30:16;;;;;;;5.68;2.60;;;7.60;99.90;;;;;;4838710;29;20041;-66
2022/06/22 13:32:48;;;;;;;7.13;4.05;;;7.50;99.90;;;;;;4848554;29;20042;-68
2022/06/22 13:35:30;;;;;;;5.07;2.92;;;7.40;99.90;;;;;;4853401;29;20045;-63
2022/06/22 13:38:40;;;;;;;6.18;3.20;;;7.30;99.90;;;;;;4845721;29;20029;-68
2022/06/22 13:41:43;;;;;;;6.15;3.78;;;7.20;99.90;;;;;;4856318;29;20200;-68
2022/06/22 13:44:20;;;;;;;4.80;3.28;;;7.20;99.90;;;;;;4849059;29;20081;-66
2022/06/22 13:47:08;;;;;;;5.95;3.90;;;7.00;99.90;;;;;;4843304;29;20491;-64
2022/06/22 13:49:45;;;;;;;6.28;3.63;;;7.00;99.90;;;;;;4853170;29;20049;-62
2022/06/22 13:52:32;;;;;;;5.25;3.63;;;6.90;99.90;;;;;;4855267;29;20093;-65
2022/06/22 13:55:22;;;;;;;4.82;3.00;;;6.90;99.90;;;;;;4841177;29;20122;-64
2022/06/22 13:58:03;;;;;;;12.35;4.78;;;6.80;99.90;;;;;;4842957;29;20073;-63
2022/06/22 14:00:47;;;;;;;9.07;4.00;;;6.90;99.90;;;;;;4851355;29;20033;-62
2022/06/22 14:03:46;;;;;;;5.85;4.00;;;6.80;99.90;;;;;;4920398;29;20520;-64
2022/06/22 14:06:50;;;;;;;8.27;4.63;;;6.70;99.90;;;;;;4920954;29;20044;-62
2022/06/22 14:09:40;;;;;;;9.63;4.32;;;6.60;99.90;;;;;;4916035;29;20476;-62
2022/06/22 14:12:25;;;;;;;8.02;4.05;;;6.60;99.90;;;;;;4920404;29;20028;-62
2022/06/22 14:15:16;;;;;;;6.82;4.53;;;6.60;99.90;;;;;;4921756;29;20028;-66
2022/06/22 14:17:58;;;;;;;7.95;4.50;;;6.70;99.90;;;;;;4913990;29;20024;-65
2022/06/22 14:20:31;;;;;;;8.50;4.10;;;6.70;99.90;;;;;;4914558;29;20032;-66
2022/06/22 14:23:01;;;;;;;;;;;6.70;99.90;;;;;;4925492;29;20218;-62
2022/06/22 14:25:34;;;;;;;6.85;4.25;;;6.70;99.90;;;;;;4914779;29;19914;-62
2022/06/22 14:28:17;;;;;;;7.00;4.10;;;6.70;99.90;;;;;;4924398;29;20035;-62
2022/06/22 14:31:02;;;;;;;7.68;3.65;;;6.80;99.90;;;;;;4929392;29;20400;-62